Flight Track Log - Related Links

Times and Time Zones

All times are in EDT time to prevent confusion due to time zone crossing. See the LBQ611 flight status page for this flight to view local times or setup timezone preferences in your user account.

Time Position Orientation Groundspeed Altitude Reporting Facility
EDT Latitude Longitude Course Direction KTS MPH feet Rate Location/Type
Wed 08:52:28 PM 32.8667 -96.8667 320° Northwest 175 201 1,200  Level Dallas / Fort Worth TRACON
Wed 08:53:58 PM 32.9333 -96.9333 320° Northwest 224 258 4,400 2,305 Climbing Dallas / Fort Worth TRACON
Wed 08:54:59 PM 32.9500 -97.0000 287° West 207 238 7,000 2,348 Climbing Dallas / Fort Worth TRACON
Wed 08:55:53 PM 32.9333 -97.0500 248° West 205 236 8,900 1,925 Climbing Dallas / Fort Worth TRACON
Wed 08:57:38 PM 32.8225 -97.0797 193° South 239 275 12,100 1,927 Climbing Fort Worth Center
Wed 08:58:38 PM 32.7494 -97.0850 183° South 239 275 14,200 1,800 Climbing Fort Worth Center
Wed 08:59:38 PM 32.6828 -97.0850 180° South 250 288 15,700 1,350 Climbing Fort Worth Center
Wed 09:00:38 PM 32.5969 -97.0831 179° South 275 316 16,900 1,400 Climbing Fort Worth Center
Wed 09:01:38 PM 32.5156 -97.0733 174° South 286 329 18,500 1,500 Climbing Fort Worth Center
Wed 09:02:38 PM 32.4342 -97.0589 171° South 293 337 19,900 1,300 Climbing Fort Worth Center
Wed 09:03:38 PM 32.3547 -97.0419 170° South 293 337 21,100 1,150 Climbing Fort Worth Center
Wed 09:04:38 PM 32.2711 -97.0400 179° South 299 344 22,200 1,050 Climbing Fort Worth Center
Wed 09:05:38 PM 32.1961 -97.0450 183° South 299 344 23,200 1,000 Climbing Fort Worth Center
Wed 09:06:38 PM 32.1083 -97.0503 183° South 311 358 24,200 1,000 Climbing Fort Worth Center
Wed 09:07:38 PM 32.0208 -97.0556 183° South 316 364 25,200 1,000 Climbing Fort Worth Center
Wed 09:08:38 PM 31.9311 -97.0633 184° South 316 364 26,200 787 Climbing Fort Worth Center
Wed 09:09:40 PM 31.8414 -97.0644 181° South 326 375 26,800 683 Climbing Houston Center
Wed 09:10:41 PM 31.7472 -97.0706 183° South 333 383 27,600 780 Climbing Houston Center
Wed 09:11:43 PM 31.6519 -97.0744 182° South 338 389 28,400 829 Climbing Houston Center
Wed 09:12:44 PM 31.5406 -97.0814 183° South 340 391 29,300 780 Climbing Houston Center
Wed 09:13:46 PM 31.4439 -97.0911 185° South 343 395 30,000 341 Climbing Houston Center
Wed 09:14:47 PM 31.3442 -97.1042 186° South 353 406 30,000  Level Houston Center
Wed 09:15:48 PM 31.2389 -97.1147 185° South 371 427 30,000  Level Houston Center
Wed 09:16:50 PM 31.1300 -97.1256 185° South 383 441 30,000  Level Houston Center
Wed 09:17:51 PM 31.0194 -97.1356 184° South 388 447 30,000  Level Houston Center
Wed 09:18:53 PM 30.9050 -97.1450 184° South 399 459 30,000  Level Houston Center
Wed 09:19:54 PM 30.7908 -97.1581 186° South 400 460 30,000  Level Houston Center
Wed 09:20:55 PM 30.6797 -97.1703 185° South 396 456 30,000  Level Houston Center
Wed 09:21:57 PM 30.5686 -97.1822 185° South 395 455 30,000  Level Houston Center
Wed 09:22:58 PM 30.4581 -97.1942 185° South 395 455 30,000  Level Houston Center
Wed 09:23:59 PM 30.3461 -97.2056 185° South 398 458 30,000  Level Houston Center
Wed 09:25:01 PM 30.2347 -97.2164 185° South 397 457 30,000  Level Houston Center
Wed 09:26:02 PM 30.1239 -97.2278 185° South 396 456 30,000  Level Houston Center
Wed 09:27:03 PM 30.0250 -97.2381 185° South 393 452 30,000  Level Houston Center
Wed 09:28:05 PM 29.8956 -97.2511 185° South 390 449 30,000  Level Houston Center
Wed 09:29:06 PM 29.7878 -97.2614 185° South 389 448 30,000 -148 Level Houston Center
Wed 09:30:07 PM 29.6797 -97.2725 185° South 391 450 29,700 -878 Descending Houston Center
Wed 09:31:09 PM 29.5658 -97.2831 185° South 409 471 28,200 -1,415 Descending Houston Center
Wed 09:32:10 PM 29.4483 -97.2942 185° South 426 490 26,800 -1,426 Descending Houston Center
Wed 09:33:11 PM 29.3314 -97.3069 185° South 427 491 25,300 -1,475 Descending Houston Center
Wed 09:34:12 PM 29.2128 -97.3192 185° South 430 495 23,800 -1,610 Descending Houston Center
Wed 09:35:14 PM 29.0808 -97.3319 185° South 399 459 22,000 -1,610 Descending Houston Center
Wed 09:36:15 PM 28.9744 -97.3411 184° South 388 447 20,500 -1,475 Descending Houston Center
Wed 09:37:16 PM 28.8703 -97.3514 185° South 378 435 19,000 -1,463 Descending Houston Center
Wed 09:38:18 PM 28.7706 -97.3611 185° South 364 419 17,500 -1,463 Descending Houston Center
Wed 09:39:19 PM 28.6719 -97.3714 185° South 359 413 16,000 -1,475 Descending Houston Center
Wed 09:40:20 PM 28.5728 -97.3811 185° South 358 412 14,500 -1,576 Descending Houston Center
Wed 09:40:58 PM 28.4978 -97.3883 185° South 352 405 13,400 -1,463 Descending Houston Center
Wed 09:42:23 PM 28.3811 -97.3997 185° South 346 398 11,500 -1,521 Descending Houston Center
Wed 09:43:24 PM 28.2842 -97.4353 198° South 314 361 9,700 -1,659 Descending Houston Center
Wed 09:44:26 PM 28.2053 -97.4597 195° South 298 343 8,100 -1,475 Descending Houston Center
Wed 09:45:26 PM 28.1294 -97.4844 196° South 284 327 6,700 -1,475 Descending Houston Center
Wed 09:46:28 PM 28.0544 -97.5067 195° South 282 325 5,100 -1,587 Descending Houston Center
Wed 09:47:27 PM 27.9769 -97.5339 197° South 268 308 3,500 -1,463 Descending Houston Center
Wed 09:48:31 PM 27.9100 -97.5522 194° South 271 312 2,100 -716 Descending Houston Center
Wed 09:49:41 PM 27.8350 -97.5628 187° South 185 213 1,900 -443 Descending Houston Center
Wed 09:50:33 PM 27.8139 -97.5539 160° South 177 204 1,200 -771 Descending Houston Center
Wed 09:51:30 PM 27.7917 -97.5308 137° Southeast 84 97 500 -488 Descending Houston Center
Wed 09:52:36 PM 27.7714 -97.5061 133° Southeast 114 131 200 -273 Descending Houston Center

Login

Don't have an account? Register now (free) for customized features, flight alerts, and more!